Airfield :
LOGIN :

Register | Disclaimer

   EN    FR    IT 

 










Legend :    VFR   Marginal VFR   IFR   Intensive IFR   Very Intensive IFR
Visi :
Ceiling :
>= 8 km
>= 3000ft
5 to 8 km
1000 to 3000 ft
1500m to 5 km
500 to 1000 ft
800 to 1500m
200 to 500 ft
< 800m
< 200 ft
Symbols :   Thunderstorms  Fog  Heavy snow  Heavy precipitations  Wind > 20 kt
SIGMETs :     Misc.  Thunderstorms  Icing  Turbulence  Mountain Waves  Volcanic Ashes






- Airport Elevation : 370 ft


EBBE - Beauvechain AB

CURRENT METAR :
  • 180255Z AUTO VRB02KT 2600 BR BKN020/// 05/04 Q1038 YLO

EXPIRED METARs :
  • 180225Z AUTO 24003KT 2800 BR FEW005/// OVC020/// 05/05 Q1038 YLO
  • 180203Z AUTO VRB02KT 3600 BR FEW004/// OVC022/// 05/05 Q1038 YLO
  • 180144Z AUTO VRB02KT 3900 BR FEW006/// OVC022/// 05/05 Q1038 GRN
  • 180125Z AUTO 26005KT 4600 SCT006/// BKN008/// BKN023/// 05/05 Q1038 YLO
  • 180104Z AUTO VRB02KT 6000 SCT006/// OVC023/// 05/05 Q1038 YLO
  • 180055Z AUTO VRB01KT 4500 BR OVC023/// 05/05 Q1038 GRN
  • 180042Z AUTO 26004KT 4900 OVC021/// 05/05 Q1038 GRN

TAF TAF EBBE
Valid from the 17 at 19:00 until the 18 at 07:00 UTC


171541Z 1719/1807 29005KT 5000 BR SCT007 BKN020
BECMG 1722/1724 VRB03KT 2000 OVC002
TEMPO 1800/1807 0500 FG -DZ OVC001



MET'MAP, your aeronautical weather chart ! - Copyright ORBIFLY December 2007 - Disclaimer

ORBIFLY MET'MAP TEAM :

Programming & Development : Alexandra Zaïnal
Concept & original design : Baudouin d'Aumeries
Assistance for programming : Marc-Olivier Méhu
Technical & hardware support : Manuel Goepfert

Contact : metmap@orbifly.com




SOURCES & CREDITS :

   NOAA